Providence Village's Hourly Summary for Saturday, March 18, 2017
Hour Temp
(f)
RH
(%)
Solar Rad.
(MJ/m2)
Rainfall
(in)
Wind
(mph)
3/18/2017 12:00 AM 72 65 0 0 3.27
3/18/2017 1:00 AM 70 67 0 0 4.06
3/18/2017 2:00 AM 69 69 0 0 6.73
3/18/2017 3:00 AM 67 74 0 0 6.3
3/18/2017 4:00 AM 67 78 0 0 5.83
3/18/2017 5:00 AM 65 82 0 0 2.69
3/18/2017 6:00 AM 64 88 0 0 1.14
3/18/2017 7:00 AM 63 91 0 0 3.17
3/18/2017 8:00 AM 64 91 0.02 0 4.02
3/18/2017 9:00 AM 64 90 0.16 0 5.39
3/18/2017 10:00 AM 65 86 0.43 0 5.87
3/18/2017 11:00 AM 67 79 0.96 0 5.18
3/18/2017 12:00 PM 71 69 1.81 0 2.54
3/18/2017 1:00 PM 74 63 2.76 0 4.16
3/18/2017 2:00 PM 76 58 2.85 0 3.78
3/18/2017 3:00 PM 78 54 2.6 0 5.17
3/18/2017 4:00 PM 80 51 2.39 0 6.15
3/18/2017 5:00 PM 81 49 2.1 0 6.14
3/18/2017 6:00 PM 81 48 1.41 0 6.51
3/18/2017 7:00 PM 80 48 0.71 0 6.58
3/18/2017 8:00 PM 77 51 0.11 0 5.71
3/18/2017 9:00 PM 74 61 0 0 2.75
3/18/2017 10:00 PM 73 62 0 0 3.71
3/18/2017 11:00 PM 71 65 0 0 1.61
Data Summary 71 68 18.31 0.00 4.52